createdAt,value
2018-09-24T00:02:01.330Z,10.74
2018-09-24T00:04:31.040Z,10.79
2018-09-24T00:07:00.598Z,10.76
2018-09-24T00:09:34.011Z,10.91
2018-09-24T00:12:03.845Z,10.79
2018-09-24T00:14:33.790Z,10.70
2018-09-24T00:17:03.214Z,10.78
2018-09-24T00:19:33.131Z,10.72
2018-09-24T00:22:02.680Z,10.48
2018-09-24T00:24:32.476Z,10.62
2018-09-24T00:27:02.266Z,10.51
2018-09-24T00:29:32.021Z,10.42
2018-09-24T00:32:01.507Z,10.41
2018-09-24T00:34:30.726Z,10.30
2018-09-24T00:37:00.079Z,10.34
2018-09-24T00:39:29.532Z,10.28
2018-09-24T00:41:58.780Z,10.26
2018-09-24T00:44:28.647Z,10.32
2018-09-24T00:46:58.133Z,10.20
2018-09-24T00:49:27.749Z,10.20
2018-09-24T00:51:57.739Z,10.03
2018-09-24T00:54:27.252Z,10.12
2018-09-24T00:56:58.339Z,9.96
2018-09-24T00:59:27.690Z,10.05
2018-09-24T01:01:57.446Z,9.99
2018-09-24T01:04:27.303Z,10.15
2018-09-24T01:06:57.066Z,10.18
2018-09-24T01:09:26.744Z,10.20
2018-09-24T01:11:56.474Z,10.01
2018-09-24T01:14:25.767Z,10.08
2018-09-24T01:16:55.266Z,9.94
2018-09-24T01:19:24.756Z,9.95
2018-09-24T01:21:55.134Z,9.97
2018-09-24T01:24:24.571Z,9.97
2018-09-24T01:26:54.574Z,9.85
2018-09-24T01:29:23.799Z,9.73
2018-09-24T01:31:53.715Z,9.72
2018-09-24T01:34:23.223Z,9.72
2018-09-24T01:36:52.725Z,9.90
2018-09-24T01:39:22.670Z,9.73
2018-09-24T01:41:52.342Z,9.85
2018-09-24T01:44:21.835Z,9.78
2018-09-24T01:46:51.346Z,9.87
2018-09-24T01:49:21.459Z,9.84
2018-09-24T01:51:50.819Z,9.71
2018-09-24T01:54:21.187Z,9.70
2018-09-24T01:56:50.859Z,9.69
2018-09-24T01:59:20.335Z,9.66
2018-09-24T02:01:49.822Z,9.60
2018-09-24T02:04:19.323Z,9.58
2018-09-24T02:06:49.280Z,9.67
2018-09-24T02:09:18.735Z,9.62
2018-09-24T02:11:48.054Z,9.73
2018-09-24T02:14:17.998Z,9.63
2018-09-24T02:16:47.739Z,9.59
2018-09-24T02:19:17.173Z,9.68
2018-09-24T02:21:47.006Z,9.77
2018-09-24T02:24:16.399Z,9.69
2018-09-24T02:26:45.908Z,9.67
2018-09-24T02:29:15.374Z,9.54
2018-09-24T02:31:45.230Z,9.60
2018-09-24T02:34:14.470Z,9.46
2018-09-24T02:36:43.779Z,9.39
2018-09-24T02:39:13.504Z,9.40
2018-09-24T02:41:42.934Z,9.30
2018-09-24T02:44:12.403Z,9.35
2018-09-24T02:46:43.296Z,9.30
2018-09-24T02:49:12.858Z,9.20
2018-09-24T02:51:42.910Z,9.19
2018-09-24T02:54:12.265Z,9.16
2018-09-24T02:56:47.171Z,9.18
2018-09-24T02:59:16.916Z,9.25
2018-09-24T03:01:46.175Z,9.23
2018-09-24T03:04:16.003Z,9.39
2018-09-24T03:06:45.343Z,9.38
2018-09-24T03:09:17.011Z,9.53
2018-09-24T03:11:47.764Z,9.36
2018-09-24T03:14:23.941Z,9.30
2018-09-24T03:16:54.294Z,9.29
2018-09-24T03:19:23.943Z,9.32
2018-09-24T03:21:53.627Z,9.20
2018-09-24T03:24:23.366Z,9.22
2018-09-24T03:26:53.451Z,9.24
2018-09-24T03:29:25.561Z,9.23
2018-09-24T03:31:54.925Z,9.26
2018-09-24T03:34:25.337Z,9.27
2018-09-24T03:36:54.746Z,9.18
2018-09-24T03:39:24.309Z,9.14
2018-09-24T03:41:53.792Z,9.16
2018-09-24T03:44:23.878Z,9.16
2018-09-24T03:46:53.383Z,9.14
2018-09-24T03:49:22.791Z,9.25
2018-09-24T03:51:52.389Z,9.23
2018-09-24T03:54:21.915Z,9.15
2018-09-24T03:56:52.271Z,9.01
2018-09-24T03:59:21.718Z,9.03
2018-09-24T04:01:51.275Z,9.12
2018-09-24T04:04:25.882Z,9.06
2018-09-24T04:07:00.779Z,9.10
2018-09-24T04:09:35.583Z,9.06
2018-09-24T04:12:10.243Z,8.92
2018-09-24T04:14:45.775Z,8.93
2018-09-24T04:17:20.532Z,8.94
2018-09-24T04:19:54.882Z,8.93
2018-09-24T04:22:29.668Z,8.98
2018-09-24T04:25:04.431Z,8.86
2018-09-24T04:27:43.126Z,9.00
2018-09-24T04:30:17.848Z,8.88
2018-09-24T04:32:52.683Z,8.86
2018-09-24T04:35:27.492Z,8.93
2018-09-24T04:38:02.304Z,9.02
2018-09-24T04:40:37.351Z,8.96
2018-09-24T04:43:12.531Z,8.94
2018-09-24T04:45:47.439Z,8.86
2018-09-24T04:48:22.413Z,8.65
2018-09-24T04:50:56.744Z,8.67
2018-09-24T04:53:31.314Z,8.72
2018-09-24T04:56:05.983Z,8.75
2018-09-24T04:58:41.146Z,8.71
2018-09-24T05:01:15.630Z,8.74
2018-09-24T05:03:50.138Z,8.78
2018-09-24T05:06:24.638Z,8.87
2018-09-24T05:08:59.491Z,8.79
2018-09-24T05:11:34.074Z,8.84
2018-09-24T05:14:09.215Z,8.85
2018-09-24T05:16:43.755Z,8.77
2018-09-24T05:19:18.567Z,8.73
2018-09-24T05:21:53.448Z,8.72
2018-09-24T05:24:28.042Z,8.61
2018-09-24T05:27:03.030Z,8.68
2018-09-24T05:29:37.792Z,8.69
2018-09-24T05:32:12.810Z,8.56
2018-09-24T05:34:47.342Z,8.54
2018-09-24T05:37:22.175Z,8.58
2018-09-24T05:39:57.398Z,8.53
2018-09-24T05:42:32.162Z,8.51
2018-09-24T05:45:06.710Z,8.55
2018-09-24T05:47:41.623Z,8.56
2018-09-24T05:50:16.007Z,8.65
2018-09-24T05:52:50.556Z,8.79
2018-09-24T05:55:25.388Z,8.80
2018-09-24T05:58:00.102Z,8.77
2018-09-24T06:00:34.911Z,8.81
2018-09-24T06:03:09.478Z,9.10
2018-09-24T06:05:44.310Z,9.34
2018-09-24T06:08:18.883Z,9.36
2018-09-24T06:10:53.700Z,9.16
2018-09-24T06:13:28.262Z,9.05
2018-09-24T06:16:02.975Z,9.01
2018-09-24T06:18:37.766Z,9.10
2018-09-24T06:21:12.977Z,9.05
2018-09-24T06:23:47.898Z,9.01
2018-09-24T06:26:22.331Z,9.16
2018-09-24T06:28:56.624Z,9.05
2018-09-24T06:31:31.232Z,9.05
2018-09-24T06:34:06.270Z,9.17
2018-09-24T06:36:40.888Z,9.12
2018-09-24T06:39:15.507Z,9.16
2018-09-24T06:41:50.054Z,9.53
2018-09-24T06:44:24.743Z,9.41
2018-09-24T06:46:59.300Z,9.49
2018-09-24T06:49:34.151Z,9.59
2018-09-24T06:52:08.889Z,9.74
2018-09-24T06:54:43.802Z,9.53
2018-09-24T06:57:18.770Z,9.89
2018-09-24T06:59:54.075Z,9.87
2018-09-24T07:02:28.767Z,9.97
2018-09-24T07:05:03.739Z,10.16
2018-09-24T07:07:38.586Z,10.19
2018-09-24T07:10:13.479Z,10.15
2018-09-24T07:12:47.979Z,10.36
2018-09-24T07:15:22.513Z,10.28
2018-09-24T07:17:57.294Z,10.40
2018-09-24T07:20:31.956Z,10.17
2018-09-24T07:23:06.498Z,10.16
2018-09-24T07:25:41.118Z,10.32
2018-09-24T07:28:15.689Z,10.41
2018-09-24T07:30:50.236Z,10.50
2018-09-24T07:33:24.880Z,10.61
2018-09-24T07:35:59.402Z,10.69
2018-09-24T07:38:33.840Z,10.68
2018-09-24T07:41:08.244Z,11.04
2018-09-24T07:43:42.819Z,11.10
2018-09-24T07:46:17.369Z,11.07
2018-09-24T07:48:51.943Z,11.04
2018-09-24T07:51:26.842Z,11.18
2018-09-24T07:54:01.080Z,11.28
2018-09-24T07:56:35.634Z,11.39
2018-09-24T07:59:10.461Z,11.78
2018-09-24T08:01:45.276Z,11.95
2018-09-24T08:04:20.057Z,12.05
2018-09-24T08:06:55.330Z,12.11
2018-09-24T08:09:30.001Z,12.27
2018-09-24T08:12:04.711Z,12.15
2018-09-24T08:14:39.199Z,12.26
2018-09-24T08:17:13.862Z,12.37
2018-09-24T08:19:48.238Z,12.82
2018-09-24T08:22:23.079Z,13.46
2018-09-24T08:24:57.635Z,13.80
2018-09-24T08:27:32.143Z,14.60
2018-09-24T08:30:06.942Z,15.01
2018-09-24T08:32:41.794Z,14.43
2018-09-24T08:35:16.609Z,15.32
2018-09-24T08:37:51.314Z,14.94
2018-09-24T08:40:25.884Z,14.56
2018-09-24T08:43:00.652Z,14.41
2018-09-24T08:45:36.124Z,14.18
2018-09-24T08:48:11.369Z,13.79
2018-09-24T08:50:46.985Z,13.91
2018-09-24T08:53:21.933Z,13.82
2018-09-24T08:55:56.547Z,13.97
2018-09-24T08:58:31.111Z,13.97
2018-09-24T09:01:06.010Z,14.12
2018-09-24T09:03:40.832Z,14.09
2018-09-24T09:06:15.584Z,13.68
2018-09-24T09:08:50.441Z,14.18
2018-09-24T09:11:25.410Z,14.28
2018-09-24T09:14:00.293Z,14.07
2018-09-24T09:16:35.603Z,14.19
2018-09-24T09:19:10.482Z,15.28
2018-09-24T09:21:44.995Z,16.20
2018-09-24T09:24:19.515Z,15.50
2018-09-24T09:26:54.106Z,15.22
2018-09-24T09:29:28.697Z,15.99
2018-09-24T09:32:03.408Z,15.65
2018-09-24T09:34:37.841Z,15.13
2018-09-24T09:37:12.582Z,16.49
2018-09-24T09:39:47.276Z,16.07
2018-09-24T09:42:21.819Z,16.58
2018-09-24T09:44:56.745Z,15.76
2018-09-24T09:47:31.313Z,15.49
2018-09-24T09:50:05.971Z,15.22
2018-09-24T09:52:40.695Z,14.86
2018-09-24T09:55:15.714Z,14.93
2018-09-24T09:57:50.514Z,14.81
2018-09-24T10:00:25.535Z,15.68
2018-09-24T10:03:00.116Z,16.81
2018-09-24T10:05:35.151Z,17.35
2018-09-24T10:08:09.803Z,16.63
2018-09-24T10:10:44.398Z,16.04
2018-09-24T10:13:19.868Z,15.70
2018-09-24T10:15:54.521Z,15.27
2018-09-24T10:18:29.251Z,14.95
2018-09-24T10:21:03.974Z,14.47
2018-09-24T10:23:38.803Z,14.45
2018-09-24T10:26:13.866Z,14.12
2018-09-24T10:28:48.938Z,13.98
2018-09-24T10:31:23.682Z,13.75
2018-09-24T10:33:58.375Z,13.88
2018-09-24T10:36:33.399Z,13.69
2018-09-24T10:39:08.027Z,13.98
2018-09-24T10:41:42.598Z,13.94
2018-09-24T10:44:17.664Z,14.08
2018-09-24T10:46:52.528Z,14.24
2018-09-24T10:49:27.147Z,14.24
2018-09-24T10:52:01.765Z,14.07
2018-09-24T10:54:36.844Z,14.23
2018-09-24T10:57:18.543Z,14.05
2018-09-24T10:59:53.230Z,15.84
2018-09-24T11:02:27.753Z,17.77
2018-09-24T11:05:02.988Z,19.10
2018-09-24T11:07:37.779Z,19.95
2018-09-24T11:10:12.921Z,20.94
2018-09-24T11:12:48.074Z,21.07
2018-09-24T11:15:22.556Z,19.39
2018-09-24T11:17:57.757Z,20.82
2018-09-24T11:20:32.258Z,20.22
2018-09-24T11:23:07.582Z,18.28
2018-09-24T11:25:42.533Z,17.14
2018-09-24T11:28:17.754Z,17.93
2018-09-24T11:30:52.747Z,18.04
2018-09-24T11:33:27.432Z,17.94
2018-09-24T11:36:02.466Z,17.57
2018-09-24T11:38:36.962Z,16.81
2018-09-24T11:41:11.800Z,16.26
2018-09-24T11:43:46.652Z,16.59
2018-09-24T11:46:21.207Z,16.41
2018-09-24T11:48:55.802Z,16.00
2018-09-24T11:51:30.501Z,16.59
2018-09-24T11:54:05.766Z,17.26
2018-09-24T11:56:40.335Z,18.68
2018-09-24T11:59:15.320Z,18.19
2018-09-24T12:01:49.858Z,19.23
2018-09-24T12:04:24.803Z,19.08
2018-09-24T12:06:59.619Z,19.96
2018-09-24T12:09:34.335Z,19.70
2018-09-24T12:12:08.859Z,19.83
2018-09-24T12:14:43.863Z,18.91
2018-09-24T12:17:18.659Z,18.34
2018-09-24T12:19:53.712Z,18.40
2018-09-24T12:22:28.449Z,18.35
2018-09-24T12:25:03.348Z,17.40
2018-09-24T12:27:38.149Z,17.54
2018-09-24T12:30:13.008Z,17.16
2018-09-24T12:32:47.605Z,16.65
2018-09-24T12:35:22.351Z,16.25
2018-09-24T12:37:56.979Z,15.93
2018-09-24T12:40:32.208Z,15.62
2018-09-24T12:43:06.984Z,15.63
2018-09-24T12:45:41.979Z,15.56
2018-09-24T12:48:17.344Z,15.71
2018-09-24T12:50:52.371Z,15.40
2018-09-24T12:53:27.181Z,15.31
2018-09-24T12:56:02.266Z,15.59
2018-09-24T12:58:36.849Z,15.88
2018-09-24T13:01:11.852Z,16.18
2018-09-24T13:03:46.584Z,16.46
2018-09-24T13:06:21.651Z,16.33
2018-09-24T13:08:56.386Z,16.69
2018-09-24T13:11:31.070Z,16.83
2018-09-24T13:14:05.978Z,16.52
2018-09-24T13:16:40.520Z,16.63
2018-09-24T13:19:15.114Z,16.62
2018-09-24T13:21:49.728Z,16.18
2018-09-24T13:24:24.614Z,16.26
2018-09-24T13:26:59.395Z,16.31
2018-09-24T13:29:34.301Z,16.21
2018-09-24T13:32:09.241Z,16.32
2018-09-24T13:34:43.998Z,16.27
2018-09-24T13:37:18.470Z,15.96
2018-09-24T13:39:53.004Z,16.18
2018-09-24T13:42:28.403Z,16.37
2018-09-24T13:45:03.346Z,16.29
2018-09-24T13:47:38.002Z,16.21
2018-09-24T13:50:12.825Z,15.86
2018-09-24T13:52:47.577Z,15.57
2018-09-24T13:55:22.082Z,15.55
2018-09-24T13:57:56.755Z,15.20
2018-09-24T14:00:31.397Z,15.03
2018-09-24T14:03:06.083Z,14.55
2018-09-24T14:05:40.651Z,14.20
2018-09-24T14:08:15.187Z,14.13
2018-09-24T14:10:49.975Z,13.68
2018-09-24T14:13:24.966Z,13.57
2018-09-24T14:15:59.556Z,13.49
2018-09-24T14:18:34.176Z,13.39
2018-09-24T14:21:09.413Z,13.60
2018-09-24T14:23:43.998Z,13.54
2018-09-24T14:26:18.751Z,13.70
2018-09-24T14:28:53.789Z,13.55
2018-09-24T14:31:28.316Z,13.78
2018-09-24T14:34:03.654Z,13.86
2018-09-24T14:36:38.576Z,13.94
2018-09-24T14:39:14.331Z,13.96
2018-09-24T14:41:49.140Z,13.98
2018-09-24T14:44:23.504Z,13.97
2018-09-24T14:46:58.167Z,14.17
2018-09-24T14:49:33.363Z,14.12
2018-09-24T14:52:08.546Z,14.03
2018-09-24T14:54:43.847Z,14.14
2018-09-24T14:57:19.401Z,14.13
2018-09-24T14:59:54.558Z,14.13
2018-09-24T15:02:29.154Z,14.19
2018-09-24T15:05:04.159Z,14.11
2018-09-24T15:07:38.774Z,14.18
2018-09-24T15:10:13.659Z,13.95
2018-09-24T15:12:48.706Z,14.05
2018-09-24T15:15:23.547Z,14.20
2018-09-24T15:17:59.271Z,14.14
2018-09-24T15:20:34.242Z,14.35
2018-09-24T15:23:09.958Z,14.41
2018-09-24T15:25:44.679Z,14.31
2018-09-24T15:28:20.119Z,14.30
2018-09-24T15:30:54.655Z,14.38
2018-09-24T15:33:29.691Z,14.58
2018-09-24T15:36:05.127Z,14.71
2018-09-24T15:38:39.806Z,14.79
2018-09-24T15:41:14.551Z,14.81
2018-09-24T15:43:49.568Z,14.53
2018-09-24T15:46:24.344Z,14.81
2018-09-24T15:48:58.808Z,14.73
2018-09-24T15:51:33.431Z,14.76
2018-09-24T15:54:08.218Z,14.64
2018-09-24T15:56:42.995Z,14.50
2018-09-24T15:59:17.782Z,14.44
2018-09-24T16:01:52.298Z,14.50
2018-09-24T16:04:27.492Z,14.60
2018-09-24T16:07:02.544Z,14.71
2018-09-24T16:09:37.714Z,14.80
2018-09-24T16:12:12.511Z,14.70
2018-09-24T16:14:47.219Z,14.37
2018-09-24T16:17:21.807Z,14.41
2018-09-24T16:19:56.816Z,14.33
2018-09-24T16:22:31.580Z,14.04
2018-09-24T16:25:06.272Z,13.99
2018-09-24T16:27:41.007Z,13.94
2018-09-24T16:30:15.534Z,13.92
2018-09-24T16:32:50.485Z,13.94
2018-09-24T16:35:25.266Z,14.03
2018-09-24T16:37:59.931Z,13.83
2018-09-24T16:40:34.642Z,13.91
2018-09-24T16:43:09.500Z,13.90
2018-09-24T16:45:44.188Z,13.79
2018-09-24T16:48:18.822Z,13.71
2018-09-24T16:50:58.058Z,13.64
2018-09-24T16:53:32.906Z,13.61
2018-09-24T16:56:07.963Z,13.24
2018-09-24T16:58:43.191Z,13.16
2018-09-24T17:01:17.904Z,13.36
2018-09-24T17:03:52.508Z,13.23
2018-09-24T17:06:27.478Z,13.43
2018-09-24T17:09:02.247Z,13.34
2018-09-24T17:11:37.622Z,13.26
2018-09-24T17:14:12.582Z,13.42
2018-09-24T17:16:48.193Z,13.31
2018-09-24T17:19:22.717Z,13.04
2018-09-24T17:21:57.651Z,13.20
2018-09-24T17:24:33.093Z,12.98
2018-09-24T17:27:08.059Z,13.07
2018-09-24T17:29:42.884Z,12.86
2018-09-24T17:32:17.696Z,12.89
2018-09-24T17:34:52.276Z,12.85
2018-09-24T17:37:27.165Z,12.88
2018-09-24T17:40:01.528Z,13.06
2018-09-24T17:42:36.244Z,12.82
2018-09-24T17:45:11.361Z,12.76
2018-09-24T17:47:46.257Z,12.80
2018-09-24T17:50:20.856Z,12.56
2018-09-24T17:52:55.661Z,12.49
2018-09-24T17:55:31.078Z,12.54
2018-09-24T17:58:07.110Z,12.63
2018-09-24T18:00:41.940Z,12.64
2018-09-24T18:03:17.133Z,12.56
2018-09-24T18:05:51.717Z,12.56
2018-09-24T18:08:27.008Z,12.51
2018-09-24T18:11:01.583Z,12.23
2018-09-24T18:13:36.160Z,12.10
2018-09-24T18:16:11.121Z,12.04
2018-09-24T18:18:45.461Z,11.95
2018-09-24T18:21:20.445Z,12.17
2018-09-24T18:23:55.163Z,12.20
2018-09-24T18:26:29.710Z,12.19
2018-09-24T18:29:04.897Z,12.12
2018-09-24T18:31:39.923Z,12.31
2018-09-24T18:34:15.015Z,12.23
2018-09-24T18:36:49.862Z,12.29
2018-09-24T18:39:24.958Z,12.08
2018-09-24T18:41:59.429Z,11.88
2018-09-24T18:44:34.631Z,11.85
2018-09-24T18:47:09.626Z,11.80
2018-09-24T18:49:44.602Z,12.04
2018-09-24T18:52:19.667Z,12.06
2018-09-24T18:54:54.296Z,12.22
2018-09-24T18:57:29.024Z,12.03
2018-09-24T19:00:03.794Z,11.92
2018-09-24T19:02:38.829Z,12.00
2018-09-24T19:05:13.609Z,11.85
2018-09-24T19:07:48.163Z,11.73
2018-09-24T19:10:23.298Z,11.64
2018-09-24T19:13:01.590Z,11.52
2018-09-24T19:15:36.249Z,11.41
2018-09-24T19:18:11.364Z,11.45
2018-09-24T19:20:45.979Z,11.32
2018-09-24T19:23:21.040Z,11.15
2018-09-24T19:25:56.044Z,11.07
2018-09-24T19:28:30.623Z,11.09
2018-09-24T19:31:05.927Z,10.97
2018-09-24T19:33:40.937Z,10.81
2018-09-24T19:36:16.001Z,10.81
2018-09-24T19:38:51.028Z,10.65
2018-09-24T19:41:26.019Z,10.72
2018-09-24T19:44:00.772Z,10.62
2018-09-24T19:46:35.599Z,10.61
2018-09-24T19:49:10.056Z,10.50
2018-09-24T19:51:44.803Z,10.41
2018-09-24T19:54:19.507Z,10.24
2018-09-24T19:56:55.134Z,10.30
2018-09-24T19:59:29.606Z,10.22
2018-09-24T20:02:04.585Z,10.25
2018-09-24T20:04:39.093Z,10.14
2018-09-24T20:07:14.155Z,10.33
2018-09-24T20:09:49.995Z,10.23
2018-09-24T20:12:24.779Z,10.20
2018-09-24T20:14:59.893Z,10.25
2018-09-24T20:17:35.324Z,10.20
2018-09-24T20:20:10.250Z,10.50
2018-09-24T20:22:45.384Z,10.55
2018-09-24T20:25:20.249Z,10.54
2018-09-24T20:27:55.144Z,10.64
2018-09-24T20:30:29.898Z,10.39
2018-09-24T20:33:04.480Z,10.30
2018-09-24T20:35:39.897Z,10.48
2018-09-24T20:38:14.534Z,10.73
2018-09-24T20:40:49.679Z,10.59
2018-09-24T20:43:24.236Z,10.75
2018-09-24T20:45:58.984Z,10.53
2018-09-24T20:48:33.970Z,10.55
2018-09-24T20:51:09.308Z,10.80
2018-09-24T20:53:43.870Z,10.83
2018-09-24T20:56:18.458Z,10.68
2018-09-24T20:58:54.277Z,10.52
2018-09-24T21:01:29.012Z,10.85
2018-09-24T21:04:03.575Z,10.79
2018-09-24T21:06:38.530Z,10.86
2018-09-24T21:09:14.238Z,10.64
2018-09-24T21:11:48.864Z,10.61
2018-09-24T21:14:23.426Z,10.58
2018-09-24T21:16:58.243Z,10.70
2018-09-24T21:19:33.018Z,10.56
2018-09-24T21:22:08.134Z,10.49
2018-09-24T21:24:43.028Z,10.51
2018-09-24T21:27:18.098Z,10.73
2018-09-24T21:29:53.163Z,10.78
2018-09-24T21:32:28.247Z,10.87
2018-09-24T21:35:03.282Z,10.78
2018-09-24T21:37:37.981Z,10.83
2018-09-24T21:40:13.435Z,10.89
2018-09-24T21:42:48.769Z,11.00
2018-09-24T21:45:23.820Z,10.90
2018-09-24T21:47:58.872Z,10.88
2018-09-24T21:50:33.688Z,11.00
2018-09-24T21:53:08.420Z,10.93
2018-09-24T21:55:44.175Z,10.86
2018-09-24T21:58:19.255Z,10.79
2018-09-24T22:00:54.531Z,10.65
2018-09-24T22:03:29.476Z,10.83
2018-09-24T22:06:04.449Z,10.86
2018-09-24T22:08:40.345Z,10.87
2018-09-24T22:11:15.139Z,10.79
2018-09-24T22:13:50.125Z,10.84
2018-09-24T22:16:24.701Z,10.72
2018-09-24T22:18:59.612Z,10.50
2018-09-24T22:21:34.204Z,10.46
2018-09-24T22:24:08.843Z,10.46
2018-09-24T22:26:43.553Z,10.41
2018-09-24T22:29:18.642Z,10.37
2018-09-24T22:31:53.195Z,10.23
2018-09-24T22:34:28.243Z,10.28
2018-09-24T22:37:04.254Z,10.15
2018-09-24T22:39:38.894Z,10.11
2018-09-24T22:42:14.039Z,10.12
2018-09-24T22:44:49.474Z,10.01
2018-09-24T22:47:24.803Z,9.97
2018-09-24T22:49:59.530Z,9.92
2018-09-24T22:52:34.275Z,9.95
2018-09-24T22:55:09.171Z,10.02
2018-09-24T22:57:44.031Z,9.99
2018-09-24T23:00:19.263Z,9.93
2018-09-24T23:02:54.115Z,9.84
2018-09-24T23:05:28.977Z,9.75
2018-09-24T23:08:03.595Z,9.66
2018-09-24T23:10:38.235Z,9.63
2018-09-24T23:13:12.722Z,9.59
2018-09-24T23:15:47.530Z,9.51
2018-09-24T23:18:22.315Z,9.38
2018-09-24T23:20:56.987Z,9.36
2018-09-24T23:23:31.751Z,9.29
2018-09-24T23:26:06.367Z,9.28
2018-09-24T23:28:42.187Z,9.29
2018-09-24T23:31:16.967Z,9.27
2018-09-24T23:33:52.002Z,9.28
2018-09-24T23:36:26.588Z,9.22
2018-09-24T23:39:01.472Z,9.27
2018-09-24T23:41:36.264Z,9.34
2018-09-24T23:44:10.863Z,9.27
2018-09-24T23:46:45.566Z,9.12
2018-09-24T23:49:20.962Z,9.05
2018-09-24T23:51:55.701Z,9.06
2018-09-24T23:54:30.555Z,8.91
2018-09-24T23:57:05.290Z,8.90
2018-09-24T23:59:40.106Z,8.86
